Time;durP1;ratioP1;P1;durP2;ratioP2;P2;SDS_P1;SDS_P2;PMS_P1;PMS_P2;Temp;Humidity;BMP_temperature;BMP_pressure;BME280_temperature;BME280_humidity;BME280_pressure;Samples;Min_cycle;Max_cycle;Signal;HPM_P1;HPM_P2
2022/11/24 00:00:50;;;;;;;;;;;12.70;98.50;;;;;;5093650;28;20026;-66
2022/11/24 00:03:15;;;;;;;;;;;12.80;98.30;;;;;;5102581;28;19979;-66
2022/11/24 00:05:41;;;;;;;;;;;;;;;;;;5113605;28;19930;-68
2022/11/24 00:08:07;;;;;;;;;;;;;;;;;;5113669;28;19924;-68
2022/11/24 00:10:33;;;;;;;;;;;12.70;98.40;;;;;;5113617;28;20018;-65
2022/11/24 00:12:59;;;;;;;;;;;12.90;98.50;;;;;;5114123;28;20014;-66
2022/11/24 00:15:24;;;;;;;;;;;13.10;98.50;;;;;;5112881;28;19924;-66
2022/11/24 00:17:50;;;;;;;;;;;12.90;98.40;;;;;;5112956;28;20380;-66
2022/11/24 00:20:15;;;;;;;;;;;13.00;98.40;;;;;;5112925;28;19923;-66
2022/11/24 00:22:41;;;;;;;;;;;13.00;98.40;;;;;;5114035;28;20393;-65
2022/11/24 00:25:07;;;;;;;;;;;12.80;98.30;;;;;;5115426;28;20369;-66
2022/11/24 00:27:32;;;;;;;;;;;12.70;98.30;;;;;;5115311;28;19931;-66
2022/11/24 00:29:58;;;;;;;;;;;12.80;98.30;;;;;;5117913;28;19924;-66
2022/11/24 00:32:26;;;;;;;;;;;13.10;98.40;;;;;;5117555;28;19927;-66
2022/11/24 00:34:52;;;;;;;;;;;12.90;98.40;;;;;;5117814;28;19924;-66
2022/11/24 00:37:18;;;;;;;;;;;12.90;98.30;;;;;;5112621;28;20015;-66
2022/11/24 00:39:43;;;;;;;;;;;12.90;98.40;;;;;;5097382;28;20027;-65
2022/11/24 00:42:09;;;;;;;;;;;12.90;98.40;;;;;;5096980;28;20353;-66
2022/11/24 00:44:34;;;;;;;;;;;12.80;98.30;;;;;;5095728;28;19931;-66
2022/11/24 00:47:00;;;;;;;;;;;12.80;98.30;;;;;;5098199;28;19924;-66
2022/11/24 00:49:26;;;;;;;;;;;12.80;98.30;;;;;;5097002;28;20373;-66
2022/11/24 00:51:51;;;;;;;;;;;12.80;98.30;;;;;;5096512;28;19946;-66
2022/11/24 00:54:17;;;;;;;;;;;;;;;;;;5107183;28;19924;-66
2022/11/24 00:56:43;;;;;;;;;;;12.80;98.30;;;;;;5115748;28;19924;-65
2022/11/24 00:59:09;;;;;;;;;;;12.70;98.30;;;;;;5116172;28;19935;-66
2022/11/24 01:01:34;;;;;;;;;;;12.80;98.30;;;;;;5117594;28;19959;-66
2022/11/24 01:04:00;;;;;;;;;;;12.70;98.20;;;;;;5115186;28;19965;-66
2022/11/24 01:06:26;;;;;;;;;;;12.80;98.30;;;;;;5117234;28;19923;-66
2022/11/24 01:08:52;;;;;;;;;;;12.80;98.20;;;;;;5115581;28;20297;-66
2022/11/24 01:11:25;;;;;;;;;;;12.70;98.20;;;;;;5111419;28;19931;-66
2022/11/24 01:13:54;;;;;;;;;;;12.60;98.10;;;;;;5106671;28;19924;-66
2022/11/24 01:16:21;;;;;;;;;;;12.80;98.20;;;;;;5115839;28;19931;-66
2022/11/24 01:18:47;;;;;;;;;;;12.80;98.20;;;;;;5116786;28;19928;-65
2022/11/24 01:21:13;;;;;;;;;;;;;;;;;;5116657;28;19924;-65
2022/11/24 01:23:38;;;;;;;;;;;12.70;98.10;;;;;;5131619;27;20022;-66
2022/11/24 01:26:05;;;;;;;;;;;12.60;98.10;;;;;;5116806;28;20357;-65
2022/11/24 01:28:30;;;;;;;;;;;12.70;98.10;;;;;;5129846;27;19931;-66
2022/11/24 01:30:57;;;;;;;;;;;12.80;98.20;;;;;;5116941;28;20273;-66
2022/11/24 01:33:22;;;;;;;;;;;12.90;98.10;;;;;;5111128;28;19928;-66
2022/11/24 01:35:49;;;;;;;;;;;;;;;;;;5102653;28;20278;-68
2022/11/24 01:38:14;;;;;;;;;;;12.70;98.10;;;;;;5114818;28;19949;-66
2022/11/24 01:40:40;;;;;;;;;;;12.70;98.10;;;;;;5116200;28;19924;-66
2022/11/24 01:43:19;;;;;;;;;;;12.60;98.10;;;;;;5116505;28;19924;-66
2022/11/24 01:45:45;;;;;;;;;;;12.70;98.10;;;;;;5115956;28;20286;-65
2022/11/24 01:48:15;;;;;;;;;;;12.90;98.20;;;;;;5116221;28;19945;-66
2022/11/24 01:50:41;;;;;;;;;;;;;;;;;;5116302;28;20369;-67
2022/11/24 01:53:07;;;;;;;;;;;12.90;98.20;;;;;;5116282;28;20301;-66
2022/11/24 01:55:33;;;;;;;;;;;12.60;98.10;;;;;;5098230;28;19931;-66
2022/11/24 01:58:02;;;;;;;;;;;12.60;98.10;;;;;;5095839;28;19935;-66
2022/11/24 02:00:27;;;;;;;;;;;12.70;98.10;;;;;;5102031;28;20313;-66
2022/11/24 02:02:53;;;;;;;;;;;12.70;98.10;;;;;;5115581;28;19930;-66
2022/11/24 02:05:23;;;;;;;;;;;12.70;98.10;;;;;;5113284;28;19923;-65
2022/11/24 02:07:48;;;;;;;;;;;12.70;98.10;;;;;;5114887;28;19969;-66
2022/11/24 02:10:14;;;;;;;;;;;12.60;98.10;;;;;;5115915;28;20369;-66
2022/11/24 02:12:41;;;;;;;;;;;12.60;98.10;;;;;;5115873;28;19934;-65
2022/11/24 02:15:07;;;;;;;;;;;12.80;98.10;;;;;;5113873;28;20305;-66
2022/11/24 02:17:32;;;;;;;;;;;12.70;98.10;;;;;;5113435;28;19974;-66
2022/11/24 02:20:03;;;;;;;;;;;12.90;98.20;;;;;;5115243;28;19974;-66
2022/11/24 02:22:28;;;;;;;;;;;12.80;98.10;;;;;;5115356;28;19923;-65
2022/11/24 02:24:54;;;;;;;;;;;12.80;98.10;;;;;;5129923;27;19923;-66
2022/11/24 02:27:19;;;;;;;;;;;12.70;98.10;;;;;;5115946;28;19927;-66
2022/11/24 02:29:45;;;;;;;;;;;12.80;98.10;;;;;;5115630;28;20353;-66
2022/11/24 02:32:11;;;;;;;;;;;13.00;98.20;;;;;;5131018;27;19924;-65
2022/11/24 02:34:36;;;;;;;;;;;12.70;98.10;;;;;;5114469;28;20297;-66
2022/11/24 02:37:02;;;;;;;;;;;13.00;98.10;;;;;;5114681;28;20301;-66
2022/11/24 02:39:27;;;;;;;;;;;12.80;98.10;;;;;;5115215;28;20376;-66
2022/11/24 02:41:54;;;;;;;;;;;12.50;98.00;;;;;;5115596;28;20002;-66
2022/11/24 02:44:21;;;;;;;;;;;12.80;98.10;;;;;;5113928;28;19968;-66
2022/11/24 02:46:46;;;;;;;;;;;12.90;98.10;;;;;;5103660;28;19924;-66
2022/11/24 02:49:12;;;;;;;;;;;12.90;98.10;;;;;;5093069;28;19931;-66
2022/11/24 02:51:38;;;;;;;;;;;;;;;;;;5098185;28;20022;-66
2022/11/24 02:54:03;;;;;;;;;;;12.60;98.00;;;;;;5114722;28;19924;-66
2022/11/24 02:56:29;;;;;;;;;;;12.90;98.10;;;;;;5109732;28;19928;-66
2022/11/24 02:58:55;;;;;;;;;;;12.70;98.10;;;;;;5102527;28;19924;-65
2022/11/24 03:01:21;;;;;;;;;;;12.70;98.00;;;;;;5113068;28;19946;-66
2022/11/24 03:03:47;;;;;;;;;;;12.90;98.10;;;;;;5081673;28;19931;-66
2022/11/24 03:06:12;;;;;;;;;;;12.80;98.10;;;;;;5094317;28;19920;-66
2022/11/24 03:08:38;;;;;;;;;;;12.80;98.10;;;;;;5093192;28;19924;-66
2022/11/24 03:11:04;;;;;;;;;;;12.70;98.00;;;;;;5109847;28;20035;-66
2022/11/24 03:13:29;;;;;;;;;;;12.60;98.00;;;;;;5114496;28;19927;-66
2022/11/24 03:15:55;;;;;;;;;;;12.60;98.00;;;;;;5113564;28;20014;-66
2022/11/24 03:18:20;;;;;;;;;;;12.80;98.00;;;;;;5099318;28;19924;-66
2022/11/24 03:20:46;;;;;;;;;;;12.80;98.00;;;;;;5094046;28;19950;-66
2022/11/24 03:23:12;;;;;;;;;;;13.00;98.10;;;;;;5112839;27;19924;-66
2022/11/24 03:25:37;;;;;;;;;;;12.90;98.00;;;;;;5112724;28;19942;-66
2022/11/24 03:28:03;;;;;;;;;;;12.90;98.00;;;;;;5104562;28;19978;-66
2022/11/24 03:30:29;;;;;;;;;;;12.50;98.00;;;;;;5093916;28;19935;-66
2022/11/24 03:32:54;;;;;;;;;;;12.90;98.10;;;;;;5092747;28;19924;-66
2022/11/24 03:35:20;;;;;;;;;;;12.90;98.10;;;;;;5094203;28;19931;-66
2022/11/24 03:37:46;;;;;;;;;;;12.80;98.00;;;;;;5097446;28;20309;-66
2022/11/24 03:40:11;;;;;;;;;;;12.80;98.00;;;;;;5114496;28;19923;-66
2022/11/24 03:42:38;;;;;;;;;;;12.70;98.00;;;;;;5114185;28;20385;-66
2022/11/24 03:45:04;;;;;;;;;;;12.90;98.10;;;;;;5114061;28;20400;-66
2022/11/24 03:47:29;;;;;;;;;;;13.00;97.90;;;;;;5113786;28;19928;-66
2022/11/24 03:49:55;;;;;;;;;;;12.80;98.10;;;;;;5113454;28;20322;-66
2022/11/24 03:52:21;;;;;;;;;;;12.60;98.00;;;;;;5112688;28;20296;-66
2022/11/24 03:54:46;;;;;;;;;;;12.90;98.10;;;;;;5114173;28;20399;-66
2022/11/24 03:57:12;;;;;;;;;;;12.90;98.10;;;;;;5114658;28;19924;-66
2022/11/24 03:59:38;;;;;;;;;;;13.00;98.10;;;;;;5112655;28;19991;-66
2022/11/24 04:02:04;;;;;;;;;;;12.70;98.00;;;;;;5115775;28;19931;-66
2022/11/24 04:04:29;;;;;;;;;;;12.80;98.00;;;;;;5117190;28;19982;-66
2022/11/24 04:06:55;;;;;;;;;;;12.80;98.00;;;;;;5117534;28;19930;-66
2022/11/24 04:09:21;;;;;;;;;;;;;;;;;;5117383;28;19928;-68
2022/11/24 04:14:31;;;;;;;;;;;12.80;98.00;;;;;;5118568;28;20276;-66
2022/11/24 04:16:56;;;;;;;;;;;12.80;98.00;;;;;;5117869;28;19924;-67
2022/11/24 04:19:22;;;;;;;;;;;12.80;98.00;;;;;;5115634;28;19981;-66
2022/11/24 04:21:47;;;;;;;;;;;12.80;98.00;;;;;;5117992;28;19924;-66
2022/11/24 04:24:13;;;;;;;;;;;12.70;98.00;;;;;;5118007;28;19923;-66
2022/11/24 04:26:39;;;;;;;;;;;12.80;98.00;;;;;;5116460;28;19978;-66
2022/11/24 04:29:05;;;;;;;;;;;12.80;98.00;;;;;;5116354;28;19923;-66
2022/11/24 04:31:31;;;;;;;;;;;;;;;;;;5115650;28;20346;-69
2022/11/24 04:33:56;;;;;;;;;;;;;;;;;;5117525;28;19969;-67
2022/11/24 04:36:22;;;;;;;;;;;12.70;97.90;;;;;;5117449;28;19924;-66
2022/11/24 04:38:48;;;;;;;;;;;;;;;;;;5110799;28;20336;-65
2022/11/24 04:41:14;;;;;;;;;;;12.90;98.00;;;;;;5097896;28;19924;-66
2022/11/24 04:43:39;;;;;;;;;;;12.90;98.00;;;;;;5097025;28;19927;-66
2022/11/24 04:46:05;;;;;;;;;;;12.60;97.90;;;;;;5097263;28;19958;-66
2022/11/24 04:48:31;;;;;;;;;;;12.70;97.90;;;;;;5097638;28;20073;-66
2022/11/24 04:50:56;;;;;;;;;;;12.90;98.00;;;;;;5117518;28;20466;-66
2022/11/24 04:53:22;;;;;;;;;;;12.70;97.90;;;;;;5117280;28;19977;-66
2022/11/24 04:55:48;;;;;;;;;;;12.80;98.00;;;;;;5117267;28;20404;-66
2022/11/24 04:58:13;;;;;;;;;;;12.70;98.00;;;;;;5117697;28;19924;-65
2022/11/24 05:00:39;;;;;;;;;;;;;;;;;;5129146;27;19927;-70
2022/11/24 05:03:05;;;;;;;;;;;12.80;98.00;;;;;;5097266;28;20380;-66
2022/11/24 05:05:31;;;;;;;;;;;12.90;98.00;;;;;;5095921;28;19920;-66
2022/11/24 05:07:59;;;;;;;;;;;12.70;97.70;;;;;;5117126;28;19969;-67
2022/11/24 05:10:34;;;;;;;;;;;12.70;97.90;;;;;;5102650;28;20389;-66
2022/11/24 05:13:00;;;;;;;;;;;12.70;97.90;;;;;;5112751;28;20010;-66
2022/11/24 05:15:26;;;;;;;;;;;12.60;97.90;;;;;;5132379;27;20004;-67
2022/11/24 05:17:51;;;;;;;;;;;12.70;97.90;;;;;;5107948;28;19950;-67
2022/11/24 05:20:17;;;;;;;;;;;12.90;98.00;;;;;;5114663;28;20073;-66
2022/11/24 05:22:43;;;;;;;;;;;12.80;97.90;;;;;;5116520;28;19930;-66
2022/11/24 05:25:09;;;;;;;;;;;12.90;98.00;;;;;;5116744;28;20027;-65
2022/11/24 05:27:35;;;;;;;;;;;;;;;;;;5096946;28;20015;-67
2022/11/24 05:30:00;;;;;;;;;;;13.00;98.00;;;;;;5099238;28;19924;-66
2022/11/24 05:32:26;;;;;;;;;;;12.70;98.00;;;;;;5111086;28;19924;-66
2022/11/24 05:34:52;;;;;;;;;;;13.00;98.00;;;;;;5096295;28;20336;-66
2022/11/24 05:37:18;;;;;;;;;;;12.80;98.00;;;;;;5096279;28;19932;-66
2022/11/24 05:39:44;;;;;;;;;;;12.80;98.00;;;;;;5104222;28;20297;-66
2022/11/24 05:44:54;;;;;;;;;;;13.00;98.00;;;;;;5117088;28;20348;-65
2022/11/24 05:47:20;;;;;;;;;;;12.90;98.00;;;;;;5116490;28;19963;-66
2022/11/24 05:49:45;;;;;;;;;;;12.90;97.90;;;;;;5111422;28;19927;-65
2022/11/24 05:52:11;;;;;;;;;;;12.50;97.80;;;;;;5107175;28;19945;-66
2022/11/24 05:54:37;;;;;;;;;;;12.60;97.90;;;;;;5115844;28;19924;-66
2022/11/24 05:57:02;;;;;;;;;;;12.50;97.90;;;;;;5116586;28;20007;-68
2022/11/24 05:59:28;;;;;;;;;;;12.50;97.80;;;;;;5131295;27;19931;-66
2022/11/24 06:01:54;;;;;;;;;;;12.60;97.90;;;;;;5116530;28;19924;-65
2022/11/24 06:04:19;;;;;;;;;;;12.60;97.80;;;;;;5115540;28;20300;-65
2022/11/24 06:06:45;;;;;;;;;;;12.80;97.90;;;;;;5104248;28;19971;-66
2022/11/24 06:09:11;;;;;;;;;;;12.50;97.80;;;;;;5094169;28;19924;-66
2022/11/24 06:11:37;;;;;;;;;;;12.80;97.70;;;;;;5111076;28;19924;-67
2022/11/24 06:14:02;;;;;;;;;;;12.70;97.80;;;;;;5115104;28;20309;-66
2022/11/24 06:16:28;;;;;;;;;;;12.80;97.80;;;;;;5115078;28;19923;-66
2022/11/24 06:18:54;;;;;;;;;;;12.90;97.90;;;;;;5115678;28;20421;-66
2022/11/24 06:21:20;;;;;;;;;;;;;;;;;;5113476;28;20006;-68
2022/11/24 06:23:48;;;;;;;;;;;12.70;97.80;;;;;;5114943;28;19923;-66
2022/11/24 06:26:14;;;;;;;;;;;12.50;97.70;;;;;;5115989;28;20365;-66
2022/11/24 06:28:40;;;;;;;;;;;12.70;97.80;;;;;;5115031;28;19946;-66
2022/11/24 06:31:06;;;;;;;;;;;12.70;97.80;;;;;;5113548;28;19923;-66
2022/11/24 06:33:32;;;;;;;;;;;12.50;97.70;;;;;;5115566;28;19924;-66
2022/11/24 06:36:00;;;;;;;;;;;12.80;97.80;;;;;;5115514;28;19920;-66
2022/11/24 06:38:25;;;;;;;;;;;12.80;97.80;;;;;;5107895;28;19932;-66
2022/11/24 06:40:57;;;;;;;;;;;12.70;97.70;;;;;;5103406;28;19927;-66
2022/11/24 06:43:23;;;;;;;;;;;12.60;97.70;;;;;;5114177;28;19930;-66
2022/11/24 06:45:52;;;;;;;;;;;12.80;97.80;;;;;;5097316;28;20429;-67
2022/11/24 06:48:17;;;;;;;;;;;12.80;97.70;;;;;;5102692;28;20397;-66
2022/11/24 06:50:43;;;;;;;;;;;12.80;97.70;;;;;;5101343;28;19920;-66
2022/11/24 06:53:11;;;;;;;;;;;12.60;97.60;;;;;;5130132;27;20397;-65
2022/11/24 06:55:37;;;;;;;;;;;12.60;97.70;;;;;;5113618;28;19969;-66
2022/11/24 06:58:03;;;;;;;;;;;12.40;97.70;;;;;;5130634;27;19927;-66
2022/11/24 07:00:30;;;;;;;;;;;12.70;97.70;;;;;;5111975;28;19935;-66
2022/11/24 07:02:59;;;;;;;;;;;12.70;97.70;;;;;;5113406;28;19955;-66
2022/11/24 07:05:25;;;;;;;;;;;12.50;97.70;;;;;;5114693;28;20446;-66
2022/11/24 07:07:50;;;;;;;;;;;12.70;97.70;;;;;;5114835;28;19924;-66
2022/11/24 07:10:16;;;;;;;;;;;12.70;97.70;;;;;;5113270;28;19923;-66
2022/11/24 07:12:42;;;;;;;;;;;13.00;97.90;;;;;;5113251;28;19924;-66
2022/11/24 07:15:07;;;;;;;;;;;12.60;97.80;;;;;;5114498;28;19923;-66
2022/11/24 07:17:33;;;;;;;;;;;;;;;;;;5114437;28;19924;-68
2022/11/24 07:19:59;;;;;;;;;;;12.70;97.70;;;;;;5113622;28;19972;-66
2022/11/24 07:22:25;;;;;;;;;;;12.70;97.80;;;;;;5100444;28;20365;-67
2022/11/24 07:24:50;;;;;;;;;;;12.80;97.80;;;;;;5113793;28;19985;-66
2022/11/24 07:27:16;;;;;;;;;;;12.80;97.80;;;;;;5114636;28;19928;-65
2022/11/24 07:29:42;;;;;;;;;;;12.90;97.80;;;;;;5112774;28;19924;-66
2022/11/24 07:32:07;;;;;;;;;;;12.70;97.70;;;;;;5114515;28;20010;-66
2022/11/24 07:34:33;;;;;;;;;;;12.80;97.40;;;;;;5100815;28;19928;-67
2022/11/24 07:36:58;;;;;;;;;;;12.90;97.80;;;;;;5095045;28;20328;-65
2022/11/24 07:39:24;;;;;;;;;;;12.80;97.80;;;;;;5094030;28;20289;-65
2022/11/24 07:41:50;;;;;;;;;;;12.90;97.70;;;;;;5111740;28;20394;-66
2022/11/24 07:44:16;;;;;;;;;;;13.00;97.80;;;;;;5130101;28;19977;-65
2022/11/24 07:46:41;;;;;;;;;;;13.10;97.80;;;;;;5113344;28;19928;-65
2022/11/24 07:49:07;;;;;;;;;;;12.90;97.80;;;;;;5112762;28;20044;-65
2022/11/24 07:51:33;;;;;;;;;;;12.80;97.70;;;;;;5113328;28;19927;-66
2022/11/24 07:53:58;;;;;;;;;;;12.90;97.70;;;;;;5114421;28;19951;-66
2022/11/24 07:56:24;;;;;;;;;;;12.80;97.70;;;;;;5114049;28;19971;-65
2022/11/24 07:58:51;;;;;;;;;;;13.10;97.70;;;;;;5122850;28;20208;-65
2022/11/24 08:01:17;;;;;;;;;;;13.00;97.70;;;;;;5112645;28;20369;-65
2022/11/24 08:03:43;;;;;;;;;;;12.80;97.60;;;;;;5112333;28;19977;-65
2022/11/24 08:06:09;;;;;;;;;;;12.80;97.60;;;;;;5114558;28;19928;-65
2022/11/24 08:08:35;;;;;;;;;;;13.00;97.60;;;;;;5114246;28;19962;-66
2022/11/24 08:11:01;;;;;;;;;;;;;;;;;;5112794;28;20384;-65
2022/11/24 08:13:27;;;;;;;;;;;;;;;;;;5112575;28;19930;-66
2022/11/24 08:15:53;;;;;;;;;;;12.90;97.40;;;;;;5109141;28;19924;-66
2022/11/24 08:18:18;;;;;;;;;;;13.10;97.50;;;;;;5106978;28;19927;-66
2022/11/24 08:20:44;;;;;;;;;;;13.20;97.50;;;;;;5112083;28;19984;-65
2022/11/24 08:23:10;;;;;;;;;;;13.00;97.50;;;;;;5113752;28;19924;-66
2022/11/24 08:25:35;;;;;;;;;;;13.00;97.40;;;;;;5124462;28;20388;-65
2022/11/24 08:28:02;;;;;;;;;;;13.00;97.50;;;;;;5112394;28;19927;-69
2022/11/24 08:30:28;;;;;;;;;;;12.90;97.50;;;;;;5112818;28;20018;-66
2022/11/24 08:32:54;;;;;;;;;;;13.10;97.60;;;;;;5091351;28;20031;-67
2022/11/24 08:35:19;;;;;;;;;;;13.10;97.50;;;;;;5092368;28;19924;-66
2022/11/24 08:37:45;;;;;;;;;;;13.20;97.50;;;;;;5093315;28;20332;-65
2022/11/24 08:40:11;;;;;;;;;;;13.10;97.50;;;;;;5093582;28;19977;-66
2022/11/24 08:42:37;;;;;;;;;;;13.20;97.50;;;;;;5092061;28;19924;-65
2022/11/24 08:45:03;;;;;;;;;;;13.20;97.50;;;;;;5093149;28;19924;-65
2022/11/24 08:47:28;;;;;;;;;;;13.20;97.40;;;;;;5100994;28;19950;-65
2022/11/24 08:49:54;;;;;;;;;;;13.00;97.20;;;;;;5116347;28;19924;-66
2022/11/24 08:52:20;;;;;;;;;;;13.10;97.20;;;;;;5113888;28;19930;-66
2022/11/24 08:54:45;;;;;;;;;;;13.10;97.30;;;;;;5116066;28;20054;-65
2022/11/24 08:57:12;;;;;;;;;;;13.30;97.30;;;;;;5108917;28;20370;-65
2022/11/24 08:59:37;;;;;;;;;;;12.90;97.30;;;;;;5096739;28;19924;-65
2022/11/24 09:02:03;;;;;;;;;;;13.20;97.30;;;;;;5096621;28;19930;-66
2022/11/24 09:04:29;;;;;;;;;;;;;;;;;;5096565;28;19935;-67
2022/11/24 09:06:55;;;;;;;;;;;13.00;97.20;;;;;;5103620;28;19924;-65
2022/11/24 09:09:20;;;;;;;;;;;13.20;97.20;;;;;;5117174;28;19924;-65
2022/11/24 09:11:46;;;;;;;;;;;13.10;97.30;;;;;;5117052;28;20335;-65
2022/11/24 09:14:12;;;;;;;;;;;;;;;;;;5117047;28;20429;-66
2022/11/24 09:16:38;;;;;;;;;;;13.20;97.20;;;;;;5115193;28;19947;-66
2022/11/24 09:19:04;;;;;;;;;;;13.00;97.20;;;;;;5096245;28;19920;-65
2022/11/24 09:21:30;;;;;;;;;;;13.40;97.20;;;;;;5101627;28;20016;-66
2022/11/24 09:23:56;;;;;;;;;;;13.20;97.20;;;;;;5116709;28;20404;-66
2022/11/24 09:26:22;;;;;;;;;;;13.20;97.20;;;;;;5115466;28;19928;-66
2022/11/24 09:28:48;;;;;;;;;;;13.40;97.20;;;;;;5115331;28;19924;-67
2022/11/24 09:31:17;;;;;;;;;;;13.10;97.20;;;;;;5116815;28;20010;-66
2022/11/24 09:33:42;;;;;;;;;;;13.30;97.20;;;;;;5115910;28;19923;-65
2022/11/24 09:36:08;;;;;;;;;;;13.30;97.20;;;;;;5115534;28;19950;-65
2022/11/24 09:38:34;;;;;;;;;;;13.30;97.20;;;;;;5110761;28;20312;-66
2022/11/24 09:41:18;;;;;;;;;;;13.30;97.20;;;;;;5113908;28;19931;-66
2022/11/24 09:43:45;;;;;;;;;;;13.20;97.10;;;;;;5115429;28;19931;-66
2022/11/24 09:46:13;;;;;;;;;;;13.30;97.20;;;;;;5115054;28;19923;-67
2022/11/24 09:48:39;;;;;;;;;;;13.30;97.10;;;;;;5113768;28;20330;-70
2022/11/24 09:51:05;;;;;;;;;;;13.20;97.10;;;;;;5105864;28;19936;-66
2022/11/24 09:53:33;;;;;;;;;;;13.70;97.30;;;;;;5084606;28;19923;-65
2022/11/24 09:56:03;;;;;;;;;;;13.60;97.30;;;;;;5107032;28;20347;-72
2022/11/24 09:58:29;;;;;;;;;;;13.50;97.30;;;;;;5110183;28;20030;-65
2022/11/24 10:00:55;;;;;;;;;;;13.80;97.40;;;;;;5095698;28;20381;-65
2022/11/24 10:03:42;;;;;;;;;;;13.60;97.40;;;;;;5077454;28;19969;-65
2022/11/24 10:06:20;;;;;;;;;;;13.40;97.40;;;;;;5094786;28;19924;-65
2022/11/24 10:08:55;;;;;;;;;;;13.60;97.50;;;;;;5095671;28;20327;-65
2022/11/24 10:11:26;;;;;;;;;;;13.30;97.50;;;;;;5095549;28;20384;-65
2022/11/24 10:13:55;;;;;;;;;;;13.50;97.50;;;;;;5095589;28;20339;-65
2022/11/24 10:16:44;;;;;;;;;;;13.90;97.70;;;;;;5115479;28;20010;-65
2022/11/24 10:19:25;;;;;;;;;;;13.70;97.60;;;;;;5103632;28;19924;-66
2022/11/24 10:22:06;;;;;;;;;;;14.00;97.70;;;;;;5131220;27;19924;-65
2022/11/24 10:24:35;;;;;;;;;;;13.80;97.70;;;;;;5131259;27;20434;-65
2022/11/24 10:27:01;;;;;;;;;;;13.80;97.70;;;;;;5131285;27;19924;-65
2022/11/24 10:29:28;;;;;;;;;;;14.10;97.80;;;;;;5097141;28;19924;-66
2022/11/24 10:31:54;;;;;;;;;;;14.20;97.80;;;;;;5096893;28;19924;-65
2022/11/24 10:34:33;;;;;;;;;;;14.10;97.80;;;;;;5112812;28;19924;-65
2022/11/24 10:37:17;;;;;;;;;;;14.10;97.80;;;;;;5112683;27;19928;-66
2022/11/24 10:40:09;;;;;;;;;;;13.80;97.80;;;;;;5110209;28;19976;-65
2022/11/24 10:42:38;;;;;;;;;;;14.00;97.90;;;;;;5107601;28;19977;-66
2022/11/24 10:45:10;;;;;;;;;;;14.40;97.90;;;;;;5113601;28;19924;-65
2022/11/24 10:47:36;;;;;;;;;;;14.50;97.90;;;;;;5112701;28;20015;-66
2022/11/24 10:50:11;;;;;;;;;;;14.30;97.80;;;;;;5104381;28;20472;-66
2022/11/24 10:52:40;;;;;;;;;;;14.30;97.80;;;;;;5092981;28;19930;-65
2022/11/24 10:55:06;;;;;;;;;;;14.50;97.80;;;;;;5092811;28;19924;-65
2022/11/24 10:57:32;;;;;;;;;;;14.50;97.90;;;;;;5093480;28;20365;-65
2022/11/24 10:59:59;;;;;;;;;;;14.70;97.90;;;;;;5100936;28;20023;-65
2022/11/24 11:02:29;;;;;;;;;;;14.50;97.80;;;;;;5097311;28;19924;-65
2022/11/24 11:04:54;;;;;;;;;;;14.60;97.80;;;;;;5082345;28;20293;-65
2022/11/24 11:07:21;;;;;;;;;;;14.70;97.80;;;;;;5118742;27;20022;-67
2022/11/24 11:09:47;;;;;;;;;;;14.60;97.70;;;;;;5106831;28;19931;-64
2022/11/24 11:12:26;;;;;;;;;;;14.70;97.70;;;;;;5111596;28;19924;-65
2022/11/24 11:14:51;;;;;;;;;;;14.80;97.70;;;;;;5113201;28;19923;-64
2022/11/24 11:17:44;;;;;;;;;;;14.80;97.70;;;;;;5113036;28;19920;-64
2022/11/24 11:20:16;;;;;;;;;;;14.90;97.60;;;;;;5095650;28;19924;-65
2022/11/24 11:22:42;;;;;;;;;;;15.00;97.70;;;;;;5082646;28;19924;-65
2022/11/24 11:25:08;;;;;;;;;;;;;;;;;;5110852;28;20448;-70
2022/11/24 11:27:34;;;;;;;;;;;14.90;97.60;;;;;;5111784;28;19967;-66
2022/11/24 11:30:15;;;;;;;;;;;15.30;97.70;;;;;;5112388;28;19986;-66
2022/11/24 11:32:52;;;;;;;;;;;15.10;97.70;;;;;;5115116;28;20022;-65
2022/11/24 11:35:17;;;;;;;;;;;15.20;97.60;;;;;;5113276;28;19924;-65
2022/11/24 11:37:43;;;;;;;;;;;15.00;97.50;;;;;;5115101;28;19923;-65
2022/11/24 11:40:14;;;;;;;;;;;15.00;97.50;;;;;;5112844;28;19931;-65
2022/11/24 11:43:06;;;;;;;;;;;15.30;97.60;;;;;;5113856;28;19924;-65
2022/11/24 11:45:31;;;;;;;;;;;15.20;97.50;;;;;;5109544;28;19924;-65
2022/11/24 11:47:58;;;;;;;;;;;15.10;97.40;;;;;;5129275;28;19924;-65
2022/11/24 11:50:29;;;;;;;;;;;15.20;97.50;;;;;;5130085;28;19924;-65
2022/11/24 11:52:55;;;;;;;;;;;15.40;97.50;;;;;;5112724;28;19982;-66
2022/11/24 11:55:20;;;;;;;;;;;15.40;97.40;;;;;;5111571;28;20135;-64
2022/11/24 11:58:05;;;;;;;;;;;15.10;97.30;;;;;;5109461;28;19928;-65
2022/11/24 12:00:31;;;;;;;;;;;15.30;97.40;;;;;;5114335;28;19970;-65
2022/11/24 12:03:04;;;;;;;;;;;15.40;97.40;;;;;;5111818;28;19924;-65
2022/11/24 12:05:30;;;;;;;;;;;15.50;97.30;;;;;;5093944;28;20010;-64
2022/11/24 12:08:14;;;;;;;;;;;15.40;97.30;;;;;;5100195;28;19975;-66
2022/11/24 12:11:00;;;;;;;;;;;15.10;97.30;;;;;;5092378;28;19932;-65
2022/11/24 12:13:29;;;;;;;;;;;15.30;97.30;;;;;;5095638;28;20434;-64
2022/11/24 12:16:02;;;;;;;;;;;15.40;97.30;;;;;;5129387;28;21885;-64
2022/11/24 12:18:48;;;;;;;;;;;15.10;97.20;;;;;;5112924;28;19986;-65
2022/11/24 12:21:18;;;;;;;;;;;15.20;97.20;;;;;;5114290;28;19927;-65
2022/11/24 12:23:59;;;;;;;;;;;15.30;97.20;;;;;;5115248;28;19931;-65
2022/11/24 12:26:24;;;;;;;;;;;15.20;97.10;;;;;;5114870;28;19930;-65
2022/11/24 12:29:02;;;;;;;;;;;15.30;97.20;;;;;;5133569;27;19924;-65
2022/11/24 12:31:36;;;;;;;;;;;15.40;97.20;;;;;;5133335;27;20381;-65
2022/11/24 12:34:23;;;;;;;;;;;15.30;97.20;;;;;;5099438;28;19982;-65
2022/11/24 12:37:00;;;;;;;;;;;15.30;97.20;;;;;;5098783;28;20021;-68
2022/11/24 12:39:27;;;;;;;;;;;15.40;97.20;;;;;;5133407;27;19923;-65
2022/11/24 12:42:03;;;;;;;;;;;15.10;97.20;;;;;;5099597;28;20334;-65
2022/11/24 12:44:49;;;;;;;;;;;15.10;97.20;;;;;;5116308;28;19924;-64
2022/11/24 12:47:16;;;;;;;;;;;15.30;97.20;;;;;;5085009;28;19977;-64
2022/11/24 12:50:01;;;;;;;;;;;15.10;97.20;;;;;;5092289;28;20332;-65
2022/11/24 12:52:31;;;;;;;;;;;15.10;97.20;;;;;;5095362;28;20405;-65
2022/11/24 12:54:56;;;;;;;;;;;15.10;97.30;;;;;;5078551;28;19924;-65
2022/11/24 12:57:42;;;;;;;;;;;15.30;97.30;;;;;;5062296;28;19926;-65
2022/11/24 13:00:21;;;;;;;;;;;15.20;97.40;;;;;;5095831;28;20290;-65
2022/11/24 13:02:54;;;;;;;;;;;15.10;97.40;;;;;;5078532;28;19969;-65
2022/11/24 13:05:32;;;;;;;;;;;14.80;97.30;;;;;;5107302;28;19923;-65
2022/11/24 13:07:58;;;;;;;;;;;15.20;97.40;;;;;;5132859;27;19968;-65
2022/11/24 13:10:24;;;;;;;;;;;15.00;97.40;;;;;;5098845;28;20289;-64
2022/11/24 13:12:55;;;;;;;;;;;15.10;97.40;;;;;;5117190;27;20010;-65
2022/11/24 13:15:21;;;;;;;;;;;15.00;97.40;;;;;;5106255;28;19924;-65
2022/11/24 13:17:47;;;;;;;;;;;14.70;97.30;;;;;;5096045;28;19931;-65
2022/11/24 13:20:19;;;;;;;;;;;15.10;97.50;;;;;;5112235;28;19931;-65
2022/11/24 13:22:48;;;;;;;;;;;14.90;97.30;;;;;;5098529;28;19924;-64
2022/11/24 13:25:20;;;;;;;;;;;15.10;97.40;;;;;;5096298;28;19924;-65
2022/11/24 13:27:47;;;;;;;;;;;14.90;97.30;;;;;;5096896;28;20297;-65
2022/11/24 13:30:31;;;;;;;;;;;14.90;97.40;;;;;;5083975;28;20014;-65
2022/11/24 13:33:09;;;;;;;;;;;14.80;97.40;;;;;;5131218;27;20010;-65
2022/11/24 13:35:35;;;;;;;;;;;14.70;97.40;;;;;;5132531;27;19969;-64
2022/11/24 13:38:00;;;;;;;;;;;14.60;97.40;;;;;;5113174;28;19920;-65
2022/11/24 13:40:35;;;;;;;;;;;14.70;97.50;;;;;;5132595;27;20044;-69
2022/11/24 13:43:01;;;;;;;;;;;14.50;97.40;;;;;;5103509;28;19924;-64
2022/11/24 13:45:43;;;;;;;;;;;14.40;97.40;;;;;;5106898;28;19924;-65
2022/11/24 13:48:18;;;;;;;;;;;14.50;97.50;;;;;;5110865;28;19974;-65
2022/11/24 13:50:50;;;;;;;;;;;14.40;97.50;;;;;;5111708;28;19924;-65
2022/11/24 13:53:16;;;;;;;;;;;;;;;;;;5095142;28;20323;-66
2022/11/24 13:55:51;;;;;;;;;;;14.60;97.40;;;;;;5101176;28;20003;-64
2022/11/24 13:58:21;;;;;;;;;;;14.60;97.50;;;;;;5109084;28;19924;-67
2022/11/24 14:01:00;;;;;;;;;;;14.50;97.50;;;;;;5095120;28;19970;-65
2022/11/24 14:03:30;;;;;;;;;;;14.30;97.40;;;;;;5094865;28;20380;-65
2022/11/24 14:05:56;;;;;;;;;;;14.30;97.50;;;;;;5113436;28;20385;-65
2022/11/24 14:08:21;;;;;;;;;;;14.10;97.60;;;;;;5111678;28;19931;-66
2022/11/24 14:10:47;;;;;;;;;;;14.20;97.70;;;;;;5114366;28;19928;-67
2022/11/24 14:13:19;;;;;;;;;;;14.40;98.20;;;;;;5106360;28;19923;-66
2022/11/24 14:15:53;;;;;;;;;;;14.50;98.60;;;;;;5114411;28;19931;-67
2022/11/24 14:18:20;;;;;;;;;;;14.60;98.80;;;;;;5077206;28;20327;-67
2022/11/24 14:20:45;;;;;;;;;;;14.40;98.80;;;;;;5108492;28;19982;-67
2022/11/24 14:23:11;;;;;;;;;;;15.00;98.90;;;;;;5097267;28;20433;-67
2022/11/24 14:25:37;;;;;;;;;;;14.60;98.70;;;;;;5097585;28;19930;-67
2022/11/24 14:28:03;;;;;;;;;;;;;;;;;;5114487;28;19931;-71
2022/11/24 14:30:28;;;;;;;;;;;14.70;98.60;;;;;;5112599;28;19928;-75
2022/11/24 14:32:55;;;;;;;;;;;14.90;98.60;;;;;;5130636;27;19923;-73
2022/11/24 14:35:21;;;;;;;;;;;14.90;98.40;;;;;;5114052;28;19931;-67